Terminal Aerodrome Forecast
Issued by NWS Sterling, VA

Current Version | Previous Version | Graphics & Text | Print | Product List | Glossary On
Versions: 1 2 3 4 5 6 7 8 9 10 11 12 13 14 15 16 17 18 19 20 21 22
133
FTUS41 KLWX 241134
TAFDCA
TAF
KDCA 241134Z 2412/2512 02008KT P6SM BKN140
     FM241500 02008KT P6SM BKN030
     FM241800 03006KT P6SM BKN035
     FM250200 03004KT P6SM SCT080=

USA.gov is the U.S. government's official web portal to all federal, state and local government web resources and services.